createdAt,value
2018-06-27T00:00:02.184Z,1026.83
2018-06-27T00:01:02.664Z,1026.80
2018-06-27T00:02:02.943Z,1026.82
2018-06-27T00:03:02.627Z,1026.77
2018-06-27T00:04:02.096Z,1026.82
2018-06-27T00:05:02.719Z,1026.78
2018-06-27T00:06:02.037Z,1026.80
2018-06-27T00:07:02.572Z,1026.78
2018-06-27T00:08:02.118Z,1026.79
2018-06-27T00:09:02.679Z,1026.76
2018-06-27T00:10:02.319Z,1026.77
2018-06-27T00:11:26.396Z,1026.77
2018-06-27T00:12:26.723Z,1026.77
2018-06-27T00:13:26.317Z,1026.78
2018-06-27T00:14:26.814Z,1026.76
2018-06-27T00:15:26.498Z,1026.75
2018-06-27T00:16:27.075Z,1026.71
2018-06-27T00:17:26.615Z,1026.71
2018-06-27T00:18:27.208Z,1026.71
2018-06-27T00:19:26.757Z,1026.73
2018-06-27T00:20:26.275Z,1026.71
2018-06-27T00:21:26.963Z,1026.69
2018-06-27T00:22:26.246Z,1026.70
2018-06-27T00:23:26.443Z,1026.70
2018-06-27T00:24:27.059Z,1026.72
2018-06-27T00:25:26.639Z,1026.75
2018-06-27T00:26:27.185Z,1026.75
2018-06-27T00:27:26.862Z,1026.76
2018-06-27T00:28:26.223Z,1026.79
2018-06-27T00:29:26.963Z,1026.76
2018-06-27T00:30:26.906Z,1026.76
2018-06-27T00:31:26.395Z,1026.75
2018-06-27T00:32:26.907Z,1026.80
2018-06-27T00:33:26.289Z,1026.78
2018-06-27T00:34:27.058Z,1026.81
2018-06-27T00:35:26.536Z,1026.85
2018-06-27T00:36:26.843Z,1026.84
2018-06-27T00:37:26.604Z,1026.85
2018-06-27T00:38:26.965Z,1026.85
2018-06-27T00:39:26.432Z,1026.85
2018-06-27T00:40:26.876Z,1026.86
2018-06-27T00:41:26.448Z,1026.79
2018-06-27T00:42:26.713Z,1026.81
2018-06-27T00:43:26.385Z,1026.82
2018-06-27T00:44:26.996Z,1026.80
2018-06-27T00:45:26.469Z,1026.80
2018-06-27T00:46:26.886Z,1026.83
2018-06-27T00:47:26.311Z,1026.78
2018-06-27T00:48:26.612Z,1026.81
2018-06-27T00:49:50.690Z,1026.83
2018-06-27T00:50:51.543Z,1026.78
2018-06-27T00:51:51.005Z,1026.82
2018-06-27T00:52:51.300Z,1026.85
2018-06-27T00:53:50.789Z,1026.83
2018-06-27T00:54:51.218Z,1026.83
2018-06-27T00:55:50.896Z,1026.83
2018-06-27T00:56:51.485Z,1026.80
2018-06-27T00:57:51.050Z,1026.79
2018-06-27T00:59:14.415Z,1026.81
2018-06-27T01:00:15.005Z,1026.82
2018-06-27T01:01:14.653Z,1026.76
2018-06-27T01:02:14.436Z,1026.77
2018-06-27T01:03:14.136Z,1026.78
2018-06-27T01:04:14.601Z,1026.74
2018-06-27T01:05:14.173Z,1026.76
2018-06-27T01:06:14.633Z,1026.79
2018-06-27T01:07:35.221Z,1026.75
2018-06-27T01:08:35.935Z,1026.76
2018-06-27T01:09:35.443Z,1026.77
2018-06-27T01:10:36.047Z,1026.77
2018-06-27T01:11:35.797Z,1026.79
2018-06-27T01:12:36.038Z,1026.77
2018-06-27T01:13:35.405Z,1026.75
2018-06-27T01:14:35.953Z,1026.78
2018-06-27T01:15:36.139Z,1026.77
2018-06-27T01:16:58.831Z,1026.77
2018-06-27T01:17:59.203Z,1026.78
2018-06-27T01:18:59.927Z,1026.77
2018-06-27T01:19:59.461Z,1026.76
2018-06-27T01:20:58.869Z,1026.78
2018-06-27T01:21:59.231Z,1026.76
2018-06-27T01:22:59.821Z,1026.76
2018-06-27T01:24:20.474Z,1026.77
2018-06-27T01:25:20.716Z,1026.77
2018-06-27T01:26:20.991Z,1026.77
2018-06-27T01:27:21.440Z,1026.77
2018-06-27T01:28:21.047Z,1026.74
2018-06-27T01:29:21.419Z,1026.75
2018-06-27T01:30:20.777Z,1026.78
2018-06-27T01:31:42.247Z,1026.77
2018-06-27T01:32:43.104Z,1026.81
2018-06-27T01:33:42.661Z,1026.76
2018-06-27T01:34:42.873Z,1026.79
2018-06-27T01:35:42.445Z,1026.79
2018-06-27T01:36:42.993Z,1026.81
2018-06-27T01:37:42.552Z,1026.81
2018-06-27T01:39:04.105Z,1026.83
2018-06-27T01:40:04.618Z,1026.79
2018-06-27T01:41:04.263Z,1026.81
2018-06-27T01:42:04.514Z,1026.79
2018-06-27T01:43:04.815Z,1026.75
2018-06-27T01:44:04.480Z,1026.80
2018-06-27T01:45:28.186Z,1026.80
2018-06-27T01:46:28.674Z,1026.78
2018-06-27T01:47:29.066Z,1026.82
2018-06-27T01:48:28.478Z,1026.82
2018-06-27T01:49:28.923Z,1026.81
2018-06-27T01:50:28.504Z,1026.81
2018-06-27T01:51:29.779Z,1026.81
2018-06-27T01:52:29.156Z,1026.83
2018-06-27T01:53:28.468Z,1026.84
2018-06-27T01:54:50.219Z,1026.87
2018-06-27T01:55:53.306Z,1026.84
2018-06-27T01:56:55.504Z,1026.84
2018-06-27T01:57:50.996Z,1026.87
2018-06-27T01:58:50.532Z,1026.84
2018-06-27T01:59:51.010Z,1026.83
2018-06-27T02:00:50.466Z,1026.84
2018-06-27T02:02:14.074Z,1026.87
2018-06-27T02:03:14.814Z,1026.87
2018-06-27T02:04:14.559Z,1026.86
2018-06-27T02:05:13.987Z,1026.84
2018-06-27T02:06:14.599Z,1026.87
2018-06-27T02:07:14.171Z,1026.85
2018-06-27T02:08:14.571Z,1026.93
2018-06-27T02:09:13.948Z,1026.91
2018-06-27T02:10:14.378Z,1026.93
2018-06-27T02:11:14.719Z,1026.94
2018-06-27T02:12:14.437Z,1026.92
2018-06-27T02:13:37.167Z,1026.89
2018-06-27T02:14:37.539Z,1026.90
2018-06-27T02:15:37.195Z,1026.92
2018-06-27T02:16:37.779Z,1026.85
2018-06-27T02:17:37.007Z,1026.86
2018-06-27T02:19:00.685Z,1026.85
2018-06-27T02:20:01.140Z,1026.87
2018-06-27T02:21:01.829Z,1026.90
2018-06-27T02:22:01.222Z,1026.85
2018-06-27T02:23:01.485Z,1026.86
2018-06-27T02:24:00.887Z,1026.87
2018-06-27T02:25:01.320Z,1026.88
2018-06-27T02:26:01.618Z,1026.90
2018-06-27T02:27:01.686Z,1026.89
2018-06-27T02:28:01.046Z,1026.89
2018-06-27T02:29:01.460Z,1026.89
2018-06-27T02:30:00.713Z,1026.86
2018-06-27T02:31:22.716Z,1026.84
2018-06-27T02:32:23.383Z,1026.83
2018-06-27T02:33:23.243Z,1026.81
2018-06-27T02:34:22.815Z,1026.81
2018-06-27T02:35:23.497Z,1026.85
2018-06-27T02:36:23.044Z,1026.85
2018-06-27T02:37:23.457Z,1026.88
2018-06-27T02:38:22.907Z,1026.88
2018-06-27T02:39:23.340Z,1026.89
2018-06-27T02:40:22.833Z,1026.89
2018-06-27T02:41:23.451Z,1026.91
2018-06-27T02:42:23.013Z,1026.91
2018-06-27T02:43:44.910Z,1026.90
2018-06-27T02:44:45.370Z,1026.90
2018-06-27T02:45:44.769Z,1026.93
2018-06-27T02:46:45.542Z,1026.95
2018-06-27T02:47:45.209Z,1026.94
2018-06-27T02:48:45.409Z,1026.94
2018-06-27T02:49:45.074Z,1026.94
2018-06-27T02:50:45.696Z,1026.89
2018-06-27T02:51:45.030Z,1026.91
2018-06-27T02:52:45.725Z,1026.88
2018-06-27T02:53:45.255Z,1026.90
2018-06-27T02:54:45.658Z,1026.89
2018-06-27T02:55:45.270Z,1026.91
2018-06-27T02:56:44.950Z,1026.93
2018-06-27T02:57:45.563Z,1026.94
2018-06-27T02:58:44.906Z,1026.91
2018-06-27T02:59:45.284Z,1026.89
2018-06-27T03:00:44.883Z,1026.91
2018-06-27T03:01:45.376Z,1026.89
2018-06-27T03:03:06.386Z,1026.91
2018-06-27T03:04:07.788Z,1026.90
2018-06-27T03:05:07.132Z,1026.93
2018-06-27T03:06:06.663Z,1026.94
2018-06-27T03:07:07.035Z,1026.96
2018-06-27T03:08:06.351Z,1026.96
2018-06-27T03:09:06.832Z,1026.96
2018-06-27T03:10:06.439Z,1026.95
2018-06-27T03:11:06.988Z,1026.95
2018-06-27T03:12:28.010Z,1026.98
2018-06-27T03:13:28.713Z,1026.93
2018-06-27T03:14:28.472Z,1026.92
2018-06-27T03:15:28.113Z,1026.90
2018-06-27T03:16:28.500Z,1026.91
2018-06-27T03:17:28.097Z,1026.90
2018-06-27T03:18:28.637Z,1026.93
2018-06-27T03:19:27.968Z,1026.94
2018-06-27T03:20:28.350Z,1026.94
2018-06-27T03:21:27.820Z,1026.95
2018-06-27T03:22:28.601Z,1026.97
2018-06-27T03:23:28.263Z,1026.99
2018-06-27T03:24:49.317Z,1027.00
2018-06-27T03:26:11.372Z,1027.04
2018-06-27T03:27:12.016Z,1026.96
2018-06-27T03:28:32.942Z,1026.95
2018-06-27T03:30:17.993Z,1026.93
2018-06-27T03:31:18.520Z,1026.94
2018-06-27T03:32:18.305Z,1026.95
2018-06-27T03:33:40.605Z,1026.94
2018-06-27T03:34:41.126Z,1026.90
2018-06-27T03:35:40.614Z,1026.94
2018-06-27T03:36:41.179Z,1026.93
2018-06-27T03:37:40.693Z,1026.96
2018-06-27T03:38:41.535Z,1027.00
2018-06-27T03:39:40.867Z,1026.99
2018-06-27T03:40:40.404Z,1026.99
2018-06-27T03:41:41.143Z,1027.00
2018-06-27T03:42:40.776Z,1027.01
2018-06-27T03:43:41.350Z,1027.05
2018-06-27T03:45:03.821Z,1027.03
2018-06-27T03:46:04.292Z,1027.03
2018-06-27T03:47:04.780Z,1027.03
2018-06-27T03:48:04.370Z,1026.99
2018-06-27T03:49:04.116Z,1027.03
2018-06-27T03:50:04.974Z,1026.99
2018-06-27T03:51:04.380Z,1027.02
2018-06-27T03:52:28.272Z,1027.01
2018-06-27T03:53:28.743Z,1027.02
2018-06-27T03:54:28.373Z,1026.99
2018-06-27T03:55:28.847Z,1027.04
2018-06-27T03:56:51.824Z,1027.03
2018-06-27T03:57:52.274Z,1027.03
2018-06-27T03:58:52.929Z,1027.02
2018-06-27T03:59:52.412Z,1027.04
2018-06-27T04:00:52.998Z,1027.02
2018-06-27T04:01:52.564Z,1027.04
2018-06-27T04:02:52.113Z,1027.06
2018-06-27T04:03:52.923Z,1027.01
2018-06-27T04:04:52.565Z,1027.02
2018-06-27T04:05:52.221Z,1026.99
2018-06-27T04:06:52.887Z,1026.96
2018-06-27T04:07:52.574Z,1026.96
2018-06-27T04:09:15.747Z,1026.97
2018-06-27T04:10:16.480Z,1026.96
2018-06-27T04:11:16.028Z,1026.97
2018-06-27T04:12:36.771Z,1026.99
2018-06-27T04:14:00.609Z,1027.01
2018-06-27T04:15:01.248Z,1026.98
2018-06-27T04:16:22.790Z,1027.00
2018-06-27T04:17:23.519Z,1026.97
2018-06-27T04:18:23.136Z,1026.98
2018-06-27T04:19:23.687Z,1027.00
2018-06-27T04:20:23.169Z,1027.01
2018-06-27T04:21:22.642Z,1027.01
2018-06-27T04:22:46.544Z,1027.05
2018-06-27T04:23:46.976Z,1027.12
2018-06-27T04:24:47.410Z,1027.09
2018-06-27T04:25:47.311Z,1027.07
2018-06-27T04:26:46.864Z,1027.09
2018-06-27T04:27:47.460Z,1027.07
2018-06-27T04:28:47.492Z,1027.08
2018-06-27T04:29:46.956Z,1027.09
2018-06-27T04:30:46.644Z,1027.09
2018-06-27T04:31:47.364Z,1027.11
2018-06-27T04:33:31.355Z,1027.10
2018-06-27T04:34:29.945Z,1027.13
2018-06-27T04:35:30.923Z,1027.12
2018-06-27T04:36:30.542Z,1027.15
2018-06-27T04:37:30.106Z,1027.14
2018-06-27T04:38:30.520Z,1027.13
2018-06-27T04:39:30.345Z,1027.15
2018-06-27T04:40:51.635Z,1027.15
2018-06-27T04:41:52.456Z,1027.11
2018-06-27T04:43:13.626Z,1027.17
2018-06-27T04:44:14.396Z,1027.13
2018-06-27T04:45:14.116Z,1027.16
2018-06-27T04:46:13.617Z,1027.16
2018-06-27T04:47:14.412Z,1027.13
2018-06-27T04:48:14.204Z,1027.14
2018-06-27T04:49:13.636Z,1027.12
2018-06-27T04:50:14.403Z,1027.15
2018-06-27T04:51:14.268Z,1027.14
2018-06-27T04:52:13.906Z,1027.15
2018-06-27T04:53:13.820Z,1027.11
2018-06-27T04:54:14.634Z,1027.08
2018-06-27T04:55:14.379Z,1027.10
2018-06-27T04:56:14.188Z,1027.12
2018-06-27T04:57:13.674Z,1027.12
2018-06-27T04:58:14.173Z,1027.07
2018-06-27T04:59:37.320Z,1027.07
2018-06-27T05:00:37.759Z,1027.08
2018-06-27T05:01:37.395Z,1027.08
2018-06-27T05:03:24.744Z,1027.12
2018-06-27T05:04:48.871Z,1027.10
2018-06-27T05:05:49.302Z,1027.12
2018-06-27T05:07:36.136Z,1027.09
2018-06-27T05:08:57.441Z,1027.13
2018-06-27T05:09:58.227Z,1027.12
2018-06-27T05:10:57.652Z,1027.13
2018-06-27T05:11:57.527Z,1027.11
2018-06-27T05:12:58.216Z,1027.14
2018-06-27T05:14:21.311Z,1027.08
2018-06-27T05:15:21.985Z,1027.09
2018-06-27T05:16:21.880Z,1027.09
2018-06-27T05:17:21.518Z,1027.08
2018-06-27T05:18:22.184Z,1027.09
2018-06-27T05:19:21.796Z,1027.10
2018-06-27T05:20:21.428Z,1027.14
2018-06-27T05:21:22.030Z,1027.09
2018-06-27T05:22:21.550Z,1027.15
2018-06-27T05:23:21.106Z,1027.17
2018-06-27T05:24:21.537Z,1027.14
2018-06-27T05:25:22.232Z,1027.13
2018-06-27T05:26:21.839Z,1027.15
2018-06-27T05:27:21.254Z,1027.14
2018-06-27T05:28:21.268Z,1027.16
2018-06-27T05:29:22.091Z,1027.11
2018-06-27T05:30:21.549Z,1027.15
2018-06-27T05:31:22.096Z,1027.14
2018-06-27T05:32:21.957Z,1027.12
2018-06-27T05:33:21.803Z,1027.15
2018-06-27T05:34:44.745Z,1027.16
2018-06-27T05:35:45.164Z,1027.18
2018-06-27T05:36:44.871Z,1027.18
2018-06-27T05:37:45.474Z,1027.22
2018-06-27T05:38:45.272Z,1027.18
2018-06-27T05:39:44.898Z,1027.24
2018-06-27T05:41:30.496Z,1027.23
2018-06-27T05:42:31.246Z,1027.20
2018-06-27T05:43:30.984Z,1027.25
2018-06-27T05:44:55.203Z,1027.22
2018-06-27T05:45:55.809Z,1027.22
2018-06-27T05:46:55.262Z,1027.21
2018-06-27T05:47:56.041Z,1027.21
2018-06-27T05:48:56.096Z,1027.16
2018-06-27T05:50:19.645Z,1027.18
2018-06-27T05:51:20.632Z,1027.20
2018-06-27T05:52:20.520Z,1027.23
2018-06-27T05:53:41.307Z,1027.22
2018-06-27T05:54:41.939Z,1027.26
2018-06-27T05:55:41.423Z,1027.28
2018-06-27T05:57:06.348Z,1027.27
2018-06-27T05:58:07.285Z,1027.28
2018-06-27T05:59:07.156Z,1027.28
2018-06-27T06:00:07.113Z,1027.27
2018-06-27T06:01:06.769Z,1027.32
2018-06-27T06:02:53.978Z,1027.31
2018-06-27T06:03:53.618Z,1027.30
2018-06-27T06:04:54.162Z,1027.27
2018-06-27T06:05:53.757Z,1027.28
2018-06-27T06:06:53.562Z,1027.25
2018-06-27T06:07:53.399Z,1027.23
2018-06-27T06:08:53.890Z,1027.25
2018-06-27T06:10:17.481Z,1027.25
2018-06-27T06:11:18.484Z,1027.27
2018-06-27T06:12:18.148Z,1027.30
2018-06-27T06:13:18.006Z,1027.32
2018-06-27T06:14:17.714Z,1027.31
2018-06-27T06:15:17.680Z,1027.30
2018-06-27T06:16:19.035Z,1027.27
2018-06-27T06:17:18.102Z,1027.28
2018-06-27T06:18:49.298Z,1027.30
2018-06-27T06:19:44.475Z,1027.32
2018-06-27T06:21:12.334Z,1027.36
2018-06-27T06:22:10.863Z,1027.32
2018-06-27T06:23:11.558Z,1027.31
2018-06-27T06:24:11.083Z,1027.30
2018-06-27T06:25:11.791Z,1027.36
2018-06-27T06:26:54.105Z,1027.35
2018-06-27T06:27:54.497Z,1027.29
2018-06-27T06:28:55.032Z,1027.32
2018-06-27T06:29:54.690Z,1027.31
2018-06-27T06:30:54.406Z,1027.31
2018-06-27T06:31:55.207Z,1027.30
2018-06-27T06:32:55.012Z,1027.28
2018-06-27T06:34:18.104Z,1027.31
2018-06-27T06:35:18.767Z,1027.30
2018-06-27T06:36:18.620Z,1027.23
2018-06-27T06:37:18.224Z,1027.32
2018-06-27T06:38:18.795Z,1027.28
2018-06-27T06:39:18.383Z,1027.22
2018-06-27T06:40:18.310Z,1027.28
2018-06-27T06:41:18.234Z,1027.30
2018-06-27T06:42:18.967Z,1027.30
2018-06-27T06:43:18.770Z,1027.30
2018-06-27T06:44:18.508Z,1027.33
2018-06-27T06:45:18.332Z,1027.29
2018-06-27T06:46:19.050Z,1027.27
2018-06-27T06:47:18.939Z,1027.29
2018-06-27T06:48:18.758Z,1027.31
2018-06-27T06:49:18.361Z,1027.30
2018-06-27T06:50:18.014Z,1027.32
2018-06-27T06:51:18.529Z,1027.34
2018-06-27T06:52:18.210Z,1027.36
2018-06-27T06:53:19.193Z,1027.34
2018-06-27T06:54:18.756Z,1027.34
2018-06-27T06:55:18.149Z,1027.38
2018-06-27T06:56:18.718Z,1027.38
2018-06-27T06:57:18.621Z,1027.31
2018-06-27T06:58:18.498Z,1027.32
2018-06-27T06:59:18.301Z,1027.33
2018-06-27T07:00:18.962Z,1027.30
2018-06-27T07:01:18.783Z,1027.31
2018-06-27T07:02:18.487Z,1027.35
2018-06-27T07:03:41.937Z,1027.36
2018-06-27T07:04:42.674Z,1027.35
2018-06-27T07:05:42.339Z,1027.31
2018-06-27T07:06:41.878Z,1027.29
2018-06-27T07:07:42.535Z,1027.30
2018-06-27T07:08:42.156Z,1027.32
2018-06-27T07:09:41.736Z,1027.26
2018-06-27T07:10:42.393Z,1027.24
2018-06-27T07:11:42.202Z,1027.26
2018-06-27T07:12:41.873Z,1027.24
2018-06-27T07:13:42.691Z,1027.29
2018-06-27T07:15:05.997Z,1027.23
2018-06-27T07:16:06.551Z,1027.29
2018-06-27T07:17:29.499Z,1027.29
2018-06-27T07:18:30.249Z,1027.22
2018-06-27T07:19:29.770Z,1027.22
2018-06-27T07:20:30.727Z,1027.23
2018-06-27T07:21:30.344Z,1027.24
2018-06-27T07:22:54.703Z,1027.24
2018-06-27T07:23:55.146Z,1027.23
2018-06-27T07:24:54.817Z,1027.21
2018-06-27T07:25:55.650Z,1027.19
2018-06-27T07:26:55.273Z,1027.23
2018-06-27T07:27:54.959Z,1027.19
2018-06-27T07:28:54.744Z,1027.21
2018-06-27T07:30:15.999Z,1027.13
2018-06-27T07:31:38.278Z,1027.16
2018-06-27T07:32:38.845Z,1027.15
2018-06-27T07:33:38.635Z,1026.99
2018-06-27T07:34:38.367Z,1027.15
2018-06-27T07:35:39.353Z,1027.04
2018-06-27T07:36:38.941Z,1027.11
2018-06-27T07:37:38.637Z,1027.11
2018-06-27T07:38:39.438Z,1027.13
2018-06-27T07:39:39.724Z,1027.13
2018-06-27T07:40:38.534Z,1027.12
2018-06-27T07:41:39.034Z,1027.09
2018-06-27T07:42:39.278Z,1027.09
2018-06-27T07:43:39.225Z,1027.10
2018-06-27T07:45:02.186Z,1027.12
2018-06-27T07:46:02.874Z,1027.11
2018-06-27T07:47:02.373Z,1027.11
2018-06-27T07:48:02.929Z,1027.12
2018-06-27T07:49:02.899Z,1027.09
2018-06-27T07:50:02.311Z,1027.07
2018-06-27T07:51:24.898Z,1027.07
2018-06-27T07:52:25.541Z,1027.03
2018-06-27T07:53:25.315Z,1027.04
2018-06-27T07:54:25.336Z,1027.02
2018-06-27T07:55:25.275Z,1027.03
2018-06-27T07:56:48.684Z,1027.07
2018-06-27T07:57:49.494Z,1027.11
2018-06-27T07:58:49.201Z,1027.11
2018-06-27T07:59:48.664Z,1027.05
2018-06-27T08:00:49.551Z,1027.09
2018-06-27T08:01:49.286Z,1027.06
2018-06-27T08:02:49.268Z,1027.04
2018-06-27T08:03:48.686Z,1026.99
2018-06-27T08:04:49.167Z,1027.00
2018-06-27T08:05:48.803Z,1026.96
2018-06-27T08:06:49.370Z,1027.01
2018-06-27T08:08:15.913Z,1026.98
2018-06-27T08:09:15.851Z,1026.98
2018-06-27T08:10:14.777Z,1026.95
2018-06-27T08:11:14.695Z,1026.97
2018-06-27T08:12:14.259Z,1027.01
2018-06-27T08:13:14.966Z,1027.04
2018-06-27T08:14:14.774Z,1026.97
2018-06-27T08:15:14.669Z,1026.99
2018-06-27T08:16:14.606Z,1027.02
2018-06-27T08:17:14.155Z,1027.00
2018-06-27T08:18:38.685Z,1027.01
2018-06-27T08:19:39.523Z,1027.02
2018-06-27T08:20:39.620Z,1027.07
2018-06-27T08:21:39.474Z,1027.03
2018-06-27T08:22:38.958Z,1027.06
2018-06-27T08:23:38.985Z,1027.06
2018-06-27T08:24:38.523Z,1027.07
2018-06-27T08:26:06.614Z,1027.12
2018-06-27T08:27:05.191Z,1027.12
2018-06-27T08:28:04.825Z,1027.11
2018-06-27T08:29:05.776Z,1027.16
2018-06-27T08:30:04.718Z,1027.12
2018-06-27T08:31:05.727Z,1027.11
2018-06-27T08:32:05.561Z,1027.08
2018-06-27T08:33:05.130Z,1027.10
2018-06-27T08:34:05.262Z,1027.07
2018-06-27T08:35:04.895Z,1027.04
2018-06-27T08:36:05.376Z,1027.07
2018-06-27T08:37:04.846Z,1027.07
2018-06-27T08:38:04.766Z,1027.08
2018-06-27T08:39:27.890Z,1026.97
2018-06-27T08:40:28.883Z,1026.97
2018-06-27T08:41:28.410Z,1026.99
2018-06-27T08:42:28.058Z,1027.00
2018-06-27T08:43:28.562Z,1027.01
2018-06-27T08:44:28.319Z,1027.03
2018-06-27T08:45:28.713Z,1027.06
2018-06-27T08:46:28.266Z,1027.02
2018-06-27T08:47:29.161Z,1026.98
2018-06-27T08:48:29.143Z,1026.95
2018-06-27T08:49:29.181Z,1026.96
2018-06-27T08:50:28.810Z,1026.90
2018-06-27T08:51:52.494Z,1026.87
2018-06-27T08:52:54.131Z,1026.89
2018-06-27T08:53:53.120Z,1026.91
2018-06-27T08:54:52.612Z,1026.88
2018-06-27T08:55:52.357Z,1026.89
2018-06-27T08:56:52.850Z,1026.90
2018-06-27T08:58:16.448Z,1026.88
2018-06-27T08:59:16.935Z,1026.83
2018-06-27T09:00:16.897Z,1026.84
2018-06-27T09:01:16.732Z,1026.80
2018-06-27T09:02:40.304Z,1026.82
2018-06-27T09:03:39.924Z,1026.81
2018-06-27T09:04:40.635Z,1026.82
2018-06-27T09:05:40.534Z,1026.84
2018-06-27T09:06:40.010Z,1026.87
2018-06-27T09:07:41.036Z,1026.80
2018-06-27T09:08:40.940Z,1026.82
2018-06-27T09:09:40.892Z,1026.82
2018-06-27T09:10:40.740Z,1026.81
2018-06-27T09:11:40.423Z,1026.78
2018-06-27T09:12:40.405Z,1026.76
2018-06-27T09:13:40.348Z,1026.76
2018-06-27T09:14:39.971Z,1026.82
2018-06-27T09:15:41.630Z,1026.84
2018-06-27T09:16:40.107Z,1026.85
2018-06-27T09:17:41.029Z,1026.88
2018-06-27T09:18:40.596Z,1026.91
2018-06-27T09:19:40.109Z,1026.92
2018-06-27T09:20:41.220Z,1026.91
2018-06-27T09:21:40.751Z,1026.90
2018-06-27T09:22:40.460Z,1026.90
2018-06-27T09:24:04.360Z,1026.88
2018-06-27T09:25:04.910Z,1026.88
2018-06-27T09:26:04.904Z,1026.87
2018-06-27T09:27:05.091Z,1026.88
2018-06-27T09:28:28.158Z,1026.79
2018-06-27T09:29:52.693Z,1026.84
2018-06-27T09:31:16.297Z,1026.79
2018-06-27T09:32:16.829Z,1026.80
2018-06-27T09:34:04.201Z,1026.77
2018-06-27T09:35:04.661Z,1026.78
2018-06-27T09:36:04.742Z,1026.77
2018-06-27T09:37:04.845Z,1026.83
2018-06-27T09:38:04.436Z,1026.81
2018-06-27T09:39:04.056Z,1026.82
2018-06-27T09:40:03.798Z,1026.77
2018-06-27T09:41:04.278Z,1026.77
2018-06-27T09:42:04.278Z,1026.79
2018-06-27T09:43:48.428Z,1026.74
2018-06-27T09:45:13.328Z,1026.79
2018-06-27T09:46:13.597Z,1026.81
2018-06-27T09:47:13.522Z,1026.79
2018-06-27T09:48:36.572Z,1026.69
2018-06-27T09:49:37.316Z,1026.76
2018-06-27T09:50:38.472Z,1026.76
2018-06-27T09:51:37.035Z,1026.70
2018-06-27T09:52:36.950Z,1026.72
2018-06-27T09:53:37.361Z,1026.72
2018-06-27T09:55:24.454Z,1026.77
2018-06-27T09:56:24.514Z,1026.77
2018-06-27T09:57:24.802Z,1026.74
2018-06-27T09:58:47.830Z,1026.66
2018-06-27T09:59:48.475Z,1026.68
2018-06-27T10:00:48.088Z,1026.68
2018-06-27T10:01:48.978Z,1026.68
2018-06-27T10:02:48.538Z,1026.62
2018-06-27T10:03:48.506Z,1026.63
2018-06-27T10:04:48.424Z,1026.62
2018-06-27T10:05:48.265Z,1026.60
2018-06-27T10:06:47.856Z,1026.58
2018-06-27T10:07:49.087Z,1026.56
2018-06-27T10:08:47.712Z,1026.54
2018-06-27T10:10:11.669Z,1026.57
2018-06-27T10:11:12.294Z,1026.53
2018-06-27T10:12:12.129Z,1026.48
2018-06-27T10:13:12.953Z,1026.48
2018-06-27T10:14:12.184Z,1026.44
2018-06-27T10:15:11.881Z,1026.47
2018-06-27T10:16:36.381Z,1026.35
2018-06-27T10:17:37.422Z,1026.44
2018-06-27T10:18:37.384Z,1026.40
2018-06-27T10:19:37.318Z,1026.44
2018-06-27T10:20:36.935Z,1026.45
2018-06-27T10:21:36.914Z,1026.38
2018-06-27T10:22:58.434Z,1026.45
2018-06-27T10:23:58.934Z,1026.42
2018-06-27T10:24:59.056Z,1026.36
2018-06-27T10:25:59.316Z,1026.39
2018-06-27T10:26:58.939Z,1026.46
2018-06-27T10:27:58.600Z,1026.40
2018-06-27T10:28:58.067Z,1026.38
2018-06-27T10:29:59.044Z,1026.39
2018-06-27T10:30:59.298Z,1026.35
2018-06-27T10:31:58.863Z,1026.30
2018-06-27T10:32:58.392Z,1026.33
2018-06-27T10:33:58.369Z,1026.33
2018-06-27T10:34:59.763Z,1026.35
2018-06-27T10:35:58.268Z,1026.28
2018-06-27T10:36:58.720Z,1026.29
2018-06-27T10:37:58.183Z,1026.32
2018-06-27T10:38:59.119Z,1026.33
2018-06-27T10:39:59.144Z,1026.34
2018-06-27T10:40:59.696Z,1026.28
2018-06-27T10:41:58.774Z,1026.29
2018-06-27T10:42:58.314Z,1026.28
2018-06-27T10:43:59.237Z,1026.25
2018-06-27T10:44:59.100Z,1026.25
2018-06-27T10:45:58.730Z,1026.25
2018-06-27T10:46:59.160Z,1026.26
2018-06-27T10:47:59.003Z,1026.24
2018-06-27T10:49:22.738Z,1026.20
2018-06-27T10:50:22.391Z,1026.18
2018-06-27T10:51:45.153Z,1026.18
2018-06-27T10:52:45.772Z,1026.19
2018-06-27T10:54:08.976Z,1026.16
2018-06-27T10:55:09.389Z,1026.16
2018-06-27T10:56:32.607Z,1026.19
2018-06-27T10:57:33.276Z,1026.18
2018-06-27T10:58:33.258Z,1026.22
2018-06-27T10:59:32.816Z,1026.23
2018-06-27T11:00:33.473Z,1026.24
2018-06-27T11:01:33.490Z,1026.29
2018-06-27T11:02:33.313Z,1026.25
2018-06-27T11:03:32.641Z,1026.23
2018-06-27T11:04:33.224Z,1026.26
2018-06-27T11:05:32.876Z,1026.19
2018-06-27T11:06:32.902Z,1026.18
2018-06-27T11:07:33.751Z,1026.18
2018-06-27T11:08:33.668Z,1026.19
2018-06-27T11:09:57.244Z,1026.20
2018-06-27T11:10:58.141Z,1026.16
2018-06-27T11:12:21.319Z,1026.13
2018-06-27T11:13:21.854Z,1026.14
2018-06-27T11:14:21.343Z,1026.12
2018-06-27T11:15:22.611Z,1026.12
2018-06-27T11:16:22.615Z,1026.12
2018-06-27T11:17:43.451Z,1026.05
2018-06-27T11:18:45.000Z,1026.14
2018-06-27T11:19:43.690Z,1026.10
2018-06-27T11:20:45.236Z,1026.08
2018-06-27T11:21:44.322Z,1026.07
2018-06-27T11:22:43.818Z,1026.09
2018-06-27T11:23:44.489Z,1026.05
2018-06-27T11:25:07.582Z,1026.11
2018-06-27T11:26:31.864Z,1026.04
2018-06-27T11:27:56.409Z,1026.09
2018-06-27T11:28:57.076Z,1026.11
2018-06-27T11:29:57.003Z,1026.03
2018-06-27T11:30:57.058Z,1026.02
2018-06-27T11:31:56.832Z,1026.00
2018-06-27T11:32:57.200Z,1025.96
2018-06-27T11:33:57.037Z,1025.99
2018-06-27T11:34:57.685Z,1025.98
2018-06-27T11:35:56.326Z,1025.92
2018-06-27T11:36:56.890Z,1025.90
2018-06-27T11:37:56.641Z,1025.92
2018-06-27T11:38:57.387Z,1025.91
2018-06-27T11:39:57.068Z,1025.94
2018-06-27T11:40:56.902Z,1026.00
2018-06-27T11:42:18.129Z,1026.03
2018-06-27T11:43:18.840Z,1025.93
2018-06-27T11:44:18.581Z,1025.92
2018-06-27T11:45:41.594Z,1025.92
2018-06-27T11:47:05.953Z,1025.95
2018-06-27T11:48:07.263Z,1025.93
2018-06-27T11:49:06.755Z,1025.95
2018-06-27T11:50:06.694Z,1025.94
2018-06-27T11:51:06.342Z,1025.83
2018-06-27T11:52:06.469Z,1025.94
2018-06-27T11:53:06.294Z,1025.93
2018-06-27T11:54:06.768Z,1025.96
2018-06-27T11:55:06.551Z,1026.03
2018-06-27T11:56:06.101Z,1025.99
2018-06-27T11:57:06.856Z,1025.97
2018-06-27T11:58:06.464Z,1025.97
2018-06-27T11:59:06.010Z,1026.03
2018-06-27T12:00:06.797Z,1025.92
2018-06-27T12:01:06.623Z,1025.92
2018-06-27T12:02:30.567Z,1025.87
2018-06-27T12:03:31.217Z,1025.84
2018-06-27T12:04:31.512Z,1025.81
2018-06-27T12:05:31.394Z,1025.79
2018-06-27T12:06:31.187Z,1025.80
2018-06-27T12:07:30.826Z,1025.81
2018-06-27T12:08:31.582Z,1025.80
2018-06-27T12:09:31.506Z,1025.81
2018-06-27T12:10:31.205Z,1025.74
2018-06-27T12:11:31.150Z,1025.71
2018-06-27T12:12:30.722Z,1025.70
2018-06-27T12:13:31.176Z,1025.83
2018-06-27T12:14:55.113Z,1025.74
2018-06-27T12:16:18.750Z,1025.74
2018-06-27T12:17:19.596Z,1025.72
2018-06-27T12:18:19.324Z,1025.76
2018-06-27T12:19:18.979Z,1025.74
2018-06-27T12:20:42.727Z,1025.73
2018-06-27T12:21:43.659Z,1025.75
2018-06-27T12:22:43.461Z,1025.83
2018-06-27T12:24:06.739Z,1025.76
2018-06-27T12:25:07.710Z,1025.77
2018-06-27T12:26:06.472Z,1025.69
2018-06-27T12:27:08.130Z,1025.72
2018-06-27T12:28:07.129Z,1025.73
2018-06-27T12:29:06.737Z,1025.71
2018-06-27T12:30:07.553Z,1025.69
2018-06-27T12:31:07.067Z,1025.67
2018-06-27T12:32:06.909Z,1025.75
2018-06-27T12:33:06.525Z,1025.82
2018-06-27T12:34:07.287Z,1025.71
2018-06-27T12:35:07.196Z,1025.83
2018-06-27T12:36:29.767Z,1025.81
2018-06-27T12:37:30.195Z,1025.72
2018-06-27T12:39:15.790Z,1025.78
2018-06-27T12:40:16.264Z,1025.80
2018-06-27T12:41:15.808Z,1025.79
2018-06-27T12:42:16.285Z,1025.81
2018-06-27T12:43:16.702Z,1025.83
2018-06-27T12:44:17.444Z,1025.77
2018-06-27T12:45:16.028Z,1025.78
2018-06-27T12:46:16.701Z,1025.90
2018-06-27T12:47:16.481Z,1025.74
2018-06-27T12:48:38.786Z,1025.75